Naples, New York
Current Conditions -  °F | °C
As of 6:54 AM on Monday 26 Jan 2015 (Local Time) from KDSV Reporting Station
Light Snow Light Snow  
Wind Chill:   Ceiling: 4400
Heat Index: 14°   Visibility: 8mi
Dew Point:   Wind: 5mph
Humidity: 54%   Direction: 120°ESE
Pressure: 29.95"   Gusts: NA
Location:  42.62°N, 77.4°W
Report Text: KDSV 261154Z AUTO 12004KT 8SM -SN OVC044 M10/M18 A2995 RMK AO2 SNB49 SLP163 P0000 60000 T11001178 11100 21106 55009
Loading
Personal Weather Stations






























Interactive Weather Map New forecast layout! Learn more

10-Day Weather Forecast

Advertisements
Track Severe Weather on mobile